Elmore, Illinois
Current Conditions -  °F | °C
As of 3:54 AM on Saturday 20 Dec 2014 (Local Time) from KPIA Reporting Station
Haze Haze  
Wind Chill: 29°   Ceiling: 5000
Heat Index: 29°   Visibility: 6mi
Dew Point: 23°   Wind: 3mph
Humidity: 78%   Direction: 90°E
Pressure: 30.27"   Gusts: NA
Location:  40.9444°N, 89.9421°W
Report Text: KPIA 200954Z 09003KT 6SM HZ OVC050 M02/M05 A3027 RMK AO2 SLP256 T10171050
Loading
Personal Weather Stations






























Interactive Weather Map New forecast layout! Learn more

10-Day Weather Forecast

Advertisements
Track Severe Weather on mobile